Antonito, CO (81120)

9:50 PM MST on February 09, 2016 (GMT -0700)
Centauri Middle School | | Change Station
CLOSE
Current Station
Personal Weather Station
Location: La Jara, CO
Elevation: 7621 ft
Nearby Weather Stations

Elev 7621 ft 37.25 °N, 105.97 °W | Updated 13 minutes ago

Clear
Clear
26.7 °F
Feels Like 27 °F
N
0.0
Wind Variable Wind from ESE
Gusts 0.0 mph

Today
High -- | Low -- °F
--% Chance of Precip.
Yesterday
High -- | Low -- °F
Precip. -- in
Pressure 30.54 in
Visibility 10.0 miles
Clouds Clear
Windchill 27 °F
Dew Point 20 °F
Humidity 76%
Rainfall 0.00 in
Snow Depth Not available.
7:00 AM 5:38 PM
Waxing Crescent, 3% visible
METAR KALS 100352Z AUTO 19004KT 10SM CLR M04/M07 A3044 RMK AO2 SLP342 T10441072
Pressure 30.54 in
Visibility 10.0 miles
Clouds Clear
Windchill 27 °F
Dew Point 20 °F
Humidity 76%
Rainfall 0.00 in
Snow Depth Not available.
7:00 AM 5:38 PM
Waxing Crescent, 3% visible
METAR KALS 100352Z AUTO 19004KT 10SM CLR M04/M07 A3044 RMK AO2 SLP342 T10441072

10-Day Weather Forecast

Almanac

Astronomy

Feb. 09, 2016 Rise Set
Actual Time
Civil Twilight
Nautical Twilight
Astronomical Twilight
Moon
Length of Visible Light
Length of Day
Tomorrow will be .
, % of the Moon is Illuminated

Today's Extremes

State Highs State Lows

Community

WunderPhotos

Upload Photos

1,891,810 photos uploaded!

WunderBlog® & News

Nearby

Air Quality

  Air Quality AQ Index Pollutant
Not available.

Snow Depth

Station Depth Elevation

Earthquake Activity

City Distance Mag. Time & Date
Minimum magnitude displayed is 2.5.

Coastal Water Temperatures

Place Temperature

Stations

Nearby Weather Stations

Station Location Temp. Windchill Dew Point Humidity Wind Precip. Elev Updated Type
                   

Watches & Warnings

There are currently no watches in effect.